Time;durP1;ratioP1;P1;durP2;ratioP2;P2;SDS_P1;SDS_P2;PMS_P1;PMS_P2;Temp;Humidity;BMP_temperature;BMP_pressure;BME280_temperature;BME280_humidity;BME280_pressure;Samples;Min_cycle;Max_cycle;Signal;HPM_P1;HPM_P2
2024/04/17 00:02:25;;;;;;;;;;;16.80;34.40;18.30;97505.00;;;;5474321;26;2326;-37
2024/04/17 00:04:53;;;;;;;;;;;16.80;34.60;18.40;97519.00;;;;5477213;26;2246;-38
2024/04/17 00:07:22;;;;;;;;;;;16.80;34.30;18.40;97497.00;;;;5473596;26;1987;-37
2024/04/17 00:09:50;;;;;;;;;;;16.80;34.20;18.40;97496.00;;;;5479215;26;2385;-38
2024/04/17 00:12:20;;;;;;;;;;;16.80;34.10;18.40;97496.00;;;;5483778;26;2385;-38
2024/04/17 00:14:47;;;;;;;;;;;16.80;33.90;18.40;97504.00;;;;5482558;26;2489;-37
2024/04/17 00:17:19;;;;;;;;;;;16.80;33.80;18.40;97504.00;;;;5484420;26;2226;-37
2024/04/17 00:19:47;;;;;;;;;;;16.80;33.70;18.40;97504.00;;;;5481630;26;2011;-37
2024/04/17 00:22:16;;;;;;;;;;;16.80;33.60;18.40;97511.00;;;;5484557;26;2333;-37
2024/04/17 00:24:44;;;;;;;;;;;16.80;33.50;18.40;97511.00;;;;5482027;26;1884;-37
2024/04/17 00:27:14;;;;;;;;;;;16.80;33.90;18.40;97509.00;;;;5482494;26;2087;-37
2024/04/17 00:29:41;;;;;;;;;;;16.80;34.10;18.30;97518.00;;;;5482362;26;2317;-37
2024/04/17 00:32:11;;;;;;;;;;;16.70;34.40;18.30;97504.00;;;;5481516;26;2226;-37
2024/04/17 00:34:40;;;;;;;;;;;16.70;34.70;18.30;97518.00;;;;5483470;26;2270;-38
2024/04/17 00:37:10;;;;;;;;;;;16.60;34.90;18.20;97509.00;;;;5481626;26;2311;-37
2024/04/17 00:39:40;;;;;;;;;;;16.60;35.20;18.20;97514.00;;;;5482148;26;2200;-38
2024/04/17 00:42:07;;;;;;;;;;;16.60;35.00;18.20;97521.00;;;;5480906;26;2287;-38
2024/04/17 00:44:37;;;;;;;;;;;16.60;34.80;18.30;97519.00;;;;5480518;26;2399;-38
2024/04/17 00:47:05;;;;;;;;;;;16.60;34.60;18.30;97520.00;;;;5481590;26;1726;-38
2024/04/17 00:49:36;;;;;;;;;;;16.70;34.50;18.30;97512.00;;;;5481458;26;2249;-37
2024/04/17 00:52:06;;;;;;;;;;;16.70;34.30;18.30;97517.00;;;;5478485;26;2077;-37
2024/04/17 00:54:35;;;;;;;;;;;16.70;34.20;18.30;97511.00;;;;5482016;26;2157;-37
2024/04/17 00:57:04;;;;;;;;;;;16.70;34.00;18.30;97512.00;;;;5479304;26;2251;-37
2024/04/17 00:59:33;;;;;;;;;;;16.70;33.90;18.30;97524.00;;;;5479457;26;2294;-38
2024/04/17 01:02:01;;;;;;;;;;;16.80;33.90;18.30;97505.00;;;;5477083;26;2303;-37
2024/04/17 01:04:31;;;;;;;;;;;16.70;34.40;18.30;97510.00;;;;5481628;26;3353;-37
2024/04/17 01:06:58;;;;;;;;;;;16.70;34.60;18.20;97501.00;;;;5477744;26;2286;-38
2024/04/17 01:09:31;;;;;;;;;;;16.60;34.70;18.30;97496.00;;;;5479732;26;2226;-36
2024/04/17 01:11:58;;;;;;;;;;;16.60;34.50;18.30;97496.00;;;;5477325;26;2305;-37
2024/04/17 01:14:28;;;;;;;;;;;16.60;34.30;18.30;97494.00;;;;5480190;26;2494;-37
2024/04/17 01:16:55;;;;;;;;;;;16.70;34.20;18.30;97499.00;;;;5478643;26;2359;-36
2024/04/17 01:19:25;;;;;;;;;;;16.70;34.00;18.30;97500.00;;;;5479953;26;2194;-38
2024/04/17 01:21:53;;;;;;;;;;;16.70;33.90;18.30;97496.00;;;;5477304;26;2208;-38
2024/04/17 01:24:25;;;;;;;;;;;16.70;33.80;18.30;97492.00;;;;5478441;26;3446;-37
2024/04/17 01:26:52;;;;;;;;;;;16.80;33.80;18.40;97495.00;;;;5475675;26;2038;-37
2024/04/17 01:29:22;;;;;;;;;;;16.70;33.60;18.30;97500.00;;;;5480724;26;1997;-37
2024/04/17 01:31:50;;;;;;;;;;;16.70;33.90;18.30;97486.00;;;;5478990;26;2297;-37
2024/04/17 01:34:20;;;;;;;;;;;16.70;34.30;18.20;97489.00;;;;5479629;26;2199;-37
2024/04/17 01:36:47;;;;;;;;;;;16.60;34.40;18.20;97478.00;;;;5477519;26;2191;-37
2024/04/17 01:39:17;;;;;;;;;;;16.60;34.50;18.30;97482.00;;;;5478478;26;2321;-37
2024/04/17 01:41:47;;;;;;;;;;;16.60;34.20;18.20;97473.00;;;;5479336;26;2329;-37
2024/04/17 01:44:17;;;;;;;;;;;16.60;34.00;18.30;97471.00;;;;5480260;26;1975;-37
2024/04/17 01:46:58;;;;;;;;;;;16.70;34.00;18.30;97477.00;;;;5476356;26;2223;-36
2024/04/17 01:49:25;;;;;;;;;;;16.70;33.80;18.30;97471.00;;;;5480259;26;2113;-37
2024/04/17 01:51:55;;;;;;;;;;;16.70;33.70;18.30;97476.00;;;;5473151;26;2172;-36
2024/04/17 01:54:23;;;;;;;;;;;16.70;33.60;18.30;97481.00;;;;5473738;26;2282;-37
2024/04/17 01:56:55;;;;;;;;;;;16.70;33.40;18.30;97480.00;;;;5478715;26;2930;-37
2024/04/17 01:59:22;;;;;;;;;;;16.70;33.40;18.30;97489.00;;;;5474077;26;1979;-37
2024/04/17 02:01:52;;;;;;;;;;;16.70;34.00;18.20;97495.00;;;;5478670;26;2196;-37
2024/04/17 02:04:20;;;;;;;;;;;16.60;34.20;18.20;97487.00;;;;5479321;26;2267;-38
2024/04/17 02:06:49;;;;;;;;;;;16.60;34.40;18.30;97498.00;;;;5478424;26;2352;-37
2024/04/17 02:09:17;;;;;;;;;;;16.60;34.20;18.20;97494.00;;;;5478841;26;2250;-38
2024/04/17 02:11:47;;;;;;;;;;;16.60;34.00;18.20;97467.00;;;;5477907;26;2195;-37
2024/04/17 02:14:17;;;;;;;;;;;16.60;33.90;18.30;97496.00;;;;5479469;26;1994;-37
2024/04/17 02:16:47;;;;;;;;;;;16.60;33.70;18.30;97495.00;;;;5478960;26;2254;-37
2024/04/17 02:19:14;;;;;;;;;;;16.70;33.70;18.30;97491.00;;;;5478910;26;2237;-38
2024/04/17 02:21:44;;;;;;;;;;;16.70;33.60;18.30;97498.00;;;;5477198;26;2466;-38
2024/04/17 02:24:11;;;;;;;;;;;16.70;33.60;18.30;97499.00;;;;5477659;26;2463;-37
2024/04/17 02:26:41;;;;;;;;;;;16.70;33.30;18.30;97493.00;;;;5479928;26;2002;-37
2024/04/17 02:29:08;;;;;;;;;;;16.70;33.60;18.20;97495.00;;;;5477126;26;2277;-38
2024/04/17 02:31:41;;;;;;;;;;;16.60;34.00;18.20;97482.00;;;;5475665;26;2257;-37
2024/04/17 02:34:08;;;;;;;;;;;16.60;34.20;18.10;97493.00;;;;5478561;26;2206;-37
2024/04/17 02:36:38;;;;;;;;;;;16.50;34.50;18.10;97498.00;;;;5479805;26;2190;-37
2024/04/17 02:39:05;;;;;;;;;;;16.50;34.80;18.10;97496.00;;;;5474624;26;2094;-37
2024/04/17 02:41:35;;;;;;;;;;;16.40;35.00;18.00;97497.00;;;;5477353;26;1956;-38
2024/04/17 02:44:03;;;;;;;;;;;16.40;34.90;18.10;97497.00;;;;5477972;26;2195;-37
2024/04/17 02:46:32;;;;;;;;;;;16.40;34.60;18.10;97503.00;;;;5479789;26;1841;-38
2024/04/17 02:49:02;;;;;;;;;;;16.50;34.50;18.10;97501.00;;;;5475634;26;2334;-37
2024/04/17 02:51:32;;;;;;;;;;;16.50;34.30;18.10;97509.00;;;;5483045;26;2264;-37
2024/04/17 02:53:59;;;;;;;;;;;16.50;34.20;18.20;97498.00;;;;5481196;26;2350;-37
2024/04/17 02:56:29;;;;;;;;;;;16.60;34.00;18.20;97518.00;;;;5483773;26;2204;-38
2024/04/17 02:58:56;;;;;;;;;;;16.60;34.00;18.20;97509.00;;;;5479031;26;2108;-37
2024/04/17 03:01:26;;;;;;;;;;;16.60;33.80;18.20;97505.00;;;;5477088;26;2576;-38
2024/04/17 03:03:54;;;;;;;;;;;16.60;33.70;18.20;97515.00;;;;5474084;26;2103;-37
2024/04/17 03:06:26;;;;;;;;;;;16.60;34.20;18.10;97522.00;;;;5471943;26;2153;-37
2024/04/17 03:08:54;;;;;;;;;;;16.50;34.60;18.10;97514.00;;;;5478784;26;2397;-38
2024/04/17 03:11:24;;;;;;;;;;;16.50;34.60;18.10;97525.00;;;;5482121;26;2222;-38
2024/04/17 03:13:51;;;;;;;;;;;16.50;34.30;18.10;97530.00;;;;5476853;26;2234;-37
2024/04/17 03:16:21;;;;;;;;;;;16.50;34.20;18.10;97527.00;;;;5482647;26;2334;-37
2024/04/17 03:18:48;;;;;;;;;;;16.60;34.10;18.10;97522.00;;;;5479736;26;1976;-37
2024/04/17 03:21:18;;;;;;;;;;;16.60;33.90;18.20;97528.00;;;;5482933;26;2251;-37
2024/04/17 03:23:48;;;;;;;;;;;16.60;33.80;18.20;97516.00;;;;5481569;26;1959;-37
2024/04/17 03:26:18;;;;;;;;;;;16.60;33.70;18.20;97521.00;;;;5479062;26;3211;-37
2024/04/17 03:28:45;;;;;;;;;;;16.60;33.60;18.20;97525.00;;;;5481446;26;2274;-38
2024/04/17 03:31:15;;;;;;;;;;;16.60;33.40;18.20;97529.00;;;;5480287;26;2337;-37
2024/04/17 03:33:45;;;;;;;;;;;16.60;33.70;18.10;97533.00;;;;5480667;26;3046;-37
2024/04/17 03:36:15;;;;;;;;;;;16.60;34.20;18.10;97535.00;;;;5473462;26;2331;-38
2024/04/17 03:38:44;;;;;;;;;;;16.50;34.30;18.10;97532.00;;;;5481630;26;2336;-37
2024/04/17 03:41:17;;;;;;;;;;;16.50;34.40;18.10;97536.00;;;;5480877;26;2345;-37
2024/04/17 03:43:44;;;;;;;;;;;16.50;34.10;18.10;97522.00;;;;5481370;26;2369;-37
2024/04/17 03:46:14;;;;;;;;;;;16.50;33.90;18.10;97533.00;;;;5482189;26;2224;-38
2024/04/17 03:48:41;;;;;;;;;;;16.50;33.80;18.20;97529.00;;;;5480381;26;2301;-37
2024/04/17 03:51:11;;;;;;;;;;;16.50;33.70;18.20;97533.00;;;;5478278;26;2224;-37
2024/04/17 03:53:39;;;;;;;;;;;16.60;33.60;18.20;97541.00;;;;5477162;26;2203;-37
2024/04/17 03:56:09;;;;;;;;;;;16.50;33.40;18.20;97533.00;;;;5474093;26;2170;-37
2024/04/17 03:58:39;;;;;;;;;;;16.60;33.40;18.10;97518.00;;;;5474611;26;2010;-38
2024/04/17 04:01:09;;;;;;;;;;;16.60;33.40;18.10;97535.00;;;;5473216;26;2236;-38
2024/04/17 04:03:37;;;;;;;;;;;16.50;33.90;18.10;97550.00;;;;5462602;26;2189;-38
2024/04/17 04:06:07;;;;;;;;;;;16.50;34.20;18.00;97549.00;;;;5477649;26;2201;-37
2024/04/17 04:08:34;;;;;;;;;;;16.40;34.10;18.10;97531.00;;;;5480727;26;1636;-37
2024/04/17 04:11:04;;;;;;;;;;;16.50;34.00;18.10;97549.00;;;;5479085;26;2229;-35
2024/04/17 04:13:32;;;;;;;;;;;16.50;33.90;18.10;97554.00;;;;5478514;26;2344;-37
2024/04/17 04:16:05;;;;;;;;;;;16.50;33.80;18.10;97550.00;;;;5471649;26;2216;-37
2024/04/17 04:18:32;;;;;;;;;;;16.50;33.70;18.10;97554.00;;;;5481620;26;2322;-37
2024/04/17 04:21:02;;;;;;;;;;;16.50;33.60;18.10;97549.00;;;;5479687;26;2199;-38
2024/04/17 04:23:29;;;;;;;;;;;16.50;33.40;18.10;97561.00;;;;5472211;26;2095;-37
2024/04/17 04:25:59;;;;;;;;;;;16.50;33.40;18.10;97551.00;;;;5470435;26;2221;-37
2024/04/17 04:28:26;;;;;;;;;;;16.50;33.30;18.10;97557.00;;;;5471589;26;2230;-37
2024/04/17 04:30:56;;;;;;;;;;;16.50;33.70;18.00;97559.00;;;;5480250;26;2189;-37
2024/04/17 04:33:26;;;;;;;;;;;16.50;34.00;18.00;97557.00;;;;5476945;26;2168;-38
2024/04/17 04:35:56;;;;;;;;;;;16.40;34.20;18.00;97565.00;;;;5472770;26;2041;-38
2024/04/17 04:38:24;;;;;;;;;;;16.40;34.60;17.90;97553.00;;;;5479380;26;2338;-38
2024/04/17 04:40:53;;;;;;;;;;;16.30;34.80;17.90;97558.00;;;;5474006;26;2343;-38
2024/04/17 04:43:21;;;;;;;;;;;16.30;35.10;17.90;97575.00;;;;5472619;26;2187;-38
2024/04/17 04:45:51;;;;;;;;;;;16.30;34.90;17.90;97567.00;;;;5477847;26;2218;-38
2024/04/17 04:48:18;;;;;;;;;;;16.30;34.60;17.90;97573.00;;;;5477263;26;2362;-37
2024/04/17 04:50:52;;;;;;;;;;;16.30;34.40;17.90;97571.00;;;;5475436;26;2310;-36
2024/04/17 04:53:19;;;;;;;;;;;16.40;34.20;18.00;97575.00;;;;5473630;26;2171;-38
2024/04/17 04:55:57;;;;;;;;;;;16.40;34.10;18.00;97575.00;;;;5477962;26;2165;-37
2024/04/17 04:58:24;;;;;;;;;;;16.40;33.90;18.00;97571.00;;;;5471443;26;2274;-37
2024/04/17 05:00:54;;;;;;;;;;;16.50;33.80;18.10;97578.00;;;;5475266;26;2210;-37
2024/04/17 05:03:22;;;;;;;;;;;16.50;33.70;18.00;97580.00;;;;5476836;26;2177;-37
2024/04/17 05:05:54;;;;;;;;;;;16.50;33.70;18.00;97571.00;;;;5474174;26;2182;-38
2024/04/17 05:08:21;;;;;;;;;;;16.40;34.20;17.90;97575.00;;;;5472641;26;2256;-37
2024/04/17 05:10:51;;;;;;;;;;;16.40;34.40;17.90;97584.00;;;;5471227;26;2431;-37
2024/04/17 05:13:19;;;;;;;;;;;16.30;34.50;18.00;97580.00;;;;5464966;26;2212;-38
2024/04/17 05:15:49;;;;;;;;;;;16.40;34.20;18.00;97575.00;;;;5479672;26;2232;-37
2024/04/17 05:18:16;;;;;;;;;;;16.40;34.10;17.90;97577.00;;;;5480273;26;2210;-38
2024/04/17 05:20:46;;;;;;;;;;;16.40;33.90;18.00;97585.00;;;;5476543;26;2268;-37
2024/04/17 05:23:16;;;;;;;;;;;16.40;33.70;18.00;97581.00;;;;5478628;26;1989;-37
2024/04/17 05:25:47;;;;;;;;;;;16.40;33.60;18.00;97593.00;;;;5479452;26;2088;-38
2024/04/17 05:28:14;;;;;;;;;;;16.40;33.50;18.10;97598.00;;;;5473746;26;2382;-36
2024/04/17 05:30:44;;;;;;;;;;;16.50;33.40;18.10;97592.00;;;;5472196;26;2216;-37
2024/04/17 05:33:11;;;;;;;;;;;16.50;33.40;18.00;97590.00;;;;5477470;26;2337;-37
2024/04/17 05:35:42;;;;;;;;;;;16.40;33.80;18.00;97597.00;;;;5479351;26;2007;-37
2024/04/17 05:38:09;;;;;;;;;;;16.40;34.20;17.90;97596.00;;;;5472844;26;2434;-38
2024/04/17 05:40:46;;;;;;;;;;;16.30;34.40;18.00;97606.00;;;;5480878;26;2230;-37
2024/04/17 05:43:14;;;;;;;;;;;16.30;34.00;18.00;97603.00;;;;5476690;26;3275;-37
2024/04/17 05:45:44;;;;;;;;;;;16.40;33.90;18.00;97595.00;;;;5478019;26;2325;-37
2024/04/17 05:48:11;;;;;;;;;;;16.40;33.80;18.00;97601.00;;;;5475920;26;2175;-37
2024/04/17 05:50:42;;;;;;;;;;;16.40;33.70;18.00;97604.00;;;;5479128;26;2218;-37
2024/04/17 05:53:10;;;;;;;;;;;16.50;33.60;18.00;97608.00;;;;5470802;26;2344;-37
2024/04/17 05:55:43;;;;;;;;;;;16.40;33.40;18.10;97613.00;;;;5477502;26;2327;-38
2024/04/17 05:58:10;;;;;;;;;;;16.50;33.40;18.10;97605.00;;;;5476921;26;2248;-37
2024/04/17 06:00:41;;;;;;;;;;;16.50;33.30;18.00;97609.00;;;;5479909;26;2254;-37
2024/04/17 06:03:08;;;;;;;;;;;16.50;33.50;18.00;97608.00;;;;5474031;26;2453;-36
2024/04/17 06:05:38;;;;;;;;;;;16.40;33.80;18.00;97615.00;;;;5477104;26;3078;-37
2024/04/17 06:08:06;;;;;;;;;;;16.40;34.10;18.00;97616.00;;;;5474907;26;1962;-37
2024/04/17 06:10:36;;;;;;;;;;;16.30;34.10;18.00;97612.00;;;;5480563;26;2142;-38
2024/04/17 06:13:06;;;;;;;;;;;16.40;33.80;18.00;97630.00;;;;5479283;26;2002;-38
2024/04/17 06:15:36;;;;;;;;;;;16.40;33.80;18.10;97619.00;;;;5479908;26;2027;-37
2024/04/17 06:18:04;;;;;;;;;;;16.40;33.50;18.00;97618.00;;;;5479063;26;2191;-37
2024/04/17 06:20:34;;;;;;;;;;;16.40;33.40;18.00;97624.00;;;;5480340;26;2183;-37
2024/04/17 06:23:03;;;;;;;;;;;16.40;33.30;18.00;97624.00;;;;5479160;26;1810;-38
2024/04/17 06:25:33;;;;;;;;;;;16.40;33.20;18.00;97620.00;;;;5476660;26;2407;-37
2024/04/17 06:28:01;;;;;;;;;;;16.50;33.20;18.10;97617.00;;;;5478073;26;2035;-37
2024/04/17 06:30:34;;;;;;;;;;;16.50;33.20;18.00;97616.00;;;;5479649;26;2344;-37
2024/04/17 06:33:01;;;;;;;;;;;16.40;33.60;18.00;97611.00;;;;5482406;26;2240;-38
2024/04/17 06:35:31;;;;;;;;;;;16.40;33.90;17.90;97633.00;;;;5481103;26;1564;-37
2024/04/17 06:37:58;;;;;;;;;;;16.30;34.10;17.90;97626.00;;;;5480062;26;2190;-36
2024/04/17 06:40:28;;;;;;;;;;;16.30;34.50;17.90;97634.00;;;;5476554;26;2177;-37
2024/04/17 06:42:56;;;;;;;;;;;16.30;34.80;17.90;97625.00;;;;5476390;26;2010;-37
2024/04/17 06:45:26;;;;;;;;;;;16.30;35.00;17.90;97631.00;;;;5481251;26;1965;-37
2024/04/17 06:47:56;;;;;;;;;;;16.30;34.60;17.90;97637.00;;;;5476247;26;1886;-37
2024/04/17 06:50:26;;;;;;;;;;;16.30;34.40;17.90;97630.00;;;;5476660;26;1973;-37
2024/04/17 06:52:53;;;;;;;;;;;16.30;34.10;18.00;97644.00;;;;5481280;26;2193;-37
2024/04/17 06:55:23;;;;;;;;;;;16.40;34.00;18.00;97642.00;;;;5478102;26;2197;-36
2024/04/17 06:57:51;;;;;;;;;;;16.40;33.80;18.00;97609.00;;;;5481755;26;2320;-37
2024/04/17 07:00:22;;;;;;;;;;;16.40;33.70;18.00;97629.00;;;;5483127;26;2196;-37
2024/04/17 07:02:49;;;;;;;;;;;16.40;33.50;18.00;97631.00;;;;5481209;26;2355;-37
2024/04/17 07:05:33;;;;;;;;;;;16.40;33.40;18.00;97642.00;;;;5478412;26;2011;-37
2024/04/17 07:08:01;;;;;;;;;;;16.40;33.70;18.00;97630.00;;;;5479782;26;2262;-38
2024/04/17 07:10:31;;;;;;;;;;;16.40;34.20;18.00;97638.00;;;;5483390;26;2345;-37
2024/04/17 07:12:58;;;;;;;;;;;16.30;34.30;18.00;97632.00;;;;5479580;26;2217;-37
2024/04/17 07:15:28;;;;;;;;;;;16.40;34.30;18.00;97626.00;;;;5477701;26;2228;-37
2024/04/17 07:17:55;;;;;;;;;;;16.40;34.10;18.00;97639.00;;;;5476192;26;1903;-37
2024/04/17 07:20:25;;;;;;;;;;;16.40;33.80;18.10;97635.00;;;;5475063;26;2302;-37
2024/04/17 07:22:55;;;;;;;;;;;16.40;33.60;18.10;97631.00;;;;5479295;26;2004;-38
2024/04/17 07:25:26;;;;;;;;;;;16.40;33.50;18.10;97639.00;;;;5479015;26;2411;-37
2024/04/17 07:27:54;;;;;;;;;;;16.50;33.50;18.10;97649.00;;;;5479585;26;2006;-37
2024/04/17 07:30:23;;;;;;;;;;;16.50;33.40;18.10;97647.00;;;;5479810;26;2218;-38
2024/04/17 07:32:51;;;;;;;;;;;16.50;33.30;18.10;97647.00;;;;5476596;26;2591;-37
2024/04/17 07:35:21;;;;;;;;;;;16.50;33.20;18.10;97645.00;;;;5479506;26;2088;-37
2024/04/17 07:37:48;;;;;;;;;;;16.50;33.70;18.10;97648.00;;;;5479447;26;2361;-36
2024/04/17 07:40:21;;;;;;;;;;;16.40;34.00;18.10;97644.00;;;;5479109;26;2300;-37
2024/04/17 07:42:48;;;;;;;;;;;16.40;34.20;18.10;97642.00;;;;5479769;26;2200;-38
2024/04/17 07:45:18;;;;;;;;;;;16.40;33.80;18.10;97651.00;;;;5481748;26;1952;-37
2024/04/17 07:47:45;;;;;;;;;;;16.50;33.80;18.10;97648.00;;;;5479334;26;1972;-37
2024/04/17 07:50:16;;;;;;;;;;;16.50;33.70;18.10;97658.00;;;;5481007;26;2301;-37
2024/04/17 07:52:43;;;;;;;;;;;16.50;33.50;18.10;97648.00;;;;5480420;26;2335;-37
2024/04/17 07:55:13;;;;;;;;;;;16.50;33.40;18.10;97657.00;;;;5479529;26;2431;-37
2024/04/17 07:57:43;;;;;;;;;;;16.50;33.20;18.20;97660.00;;;;5479685;26;2175;-37
2024/04/17 08:00:13;;;;;;;;;;;16.60;33.20;18.20;97658.00;;;;5478612;26;2209;-37
2024/04/17 08:02:45;;;;;;;;;;;16.60;33.10;18.10;97662.00;;;;5475145;26;2177;-36
2024/04/17 08:05:13;;;;;;;;;;;16.50;33.20;18.20;97662.00;;;;5479411;26;2254;-38
2024/04/17 08:07:43;;;;;;;;;;;16.50;33.80;18.10;97658.00;;;;5482967;26;2247;-37
2024/04/17 08:10:10;;;;;;;;;;;16.50;34.10;18.10;97659.00;;;;5481904;26;2125;-38
2024/04/17 08:12:41;;;;;;;;;;;16.50;33.80;18.20;97656.00;;;;5481073;26;2325;-37
2024/04/17 08:15:12;;;;;;;;;;;16.50;33.70;18.20;97661.00;;;;5480686;26;2215;-37
2024/04/17 08:17:43;;;;;;;;;;;16.60;33.60;18.20;97641.00;;;;5477087;26;2183;-37
2024/04/17 08:20:11;;;;;;;;;;;16.60;33.40;18.20;97652.00;;;;5475869;26;2018;-38
2024/04/17 08:22:41;;;;;;;;;;;16.60;33.30;18.30;97651.00;;;;5479566;26;2329;-36
2024/04/17 08:25:08;;;;;;;;;;;16.60;33.20;18.30;97656.00;;;;5477720;26;2362;-37
2024/04/17 08:27:38;;;;;;;;;;;16.70;33.20;18.30;97657.00;;;;5479468;26;2384;-36
2024/04/17 08:30:06;;;;;;;;;;;16.70;33.00;18.30;97663.00;;;;5477333;26;2365;-37
2024/04/17 08:32:41;;;;;;;;;;;16.70;33.20;18.30;97660.00;;;;5482363;26;3067;-37
2024/04/17 08:35:09;;;;;;;;;;;16.70;33.30;18.30;97656.00;;;;5479613;26;1969;-37
2024/04/17 08:37:39;;;;;;;;;;;16.70;33.70;18.30;97647.00;;;;5479683;26;2334;-36
2024/04/17 08:40:09;;;;;;;;;;;16.60;34.00;18.20;97653.00;;;;5478671;26;2254;-37
2024/04/17 08:42:39;;;;;;;;;;;16.60;34.30;18.20;97665.00;;;;5479853;26;2225;-37
2024/04/17 08:45:08;;;;;;;;;;;16.50;34.80;18.20;97660.00;;;;5479628;26;1558;-36
2024/04/17 08:47:43;;;;;;;;;;;16.50;34.70;18.20;97659.00;;;;5478307;26;2330;-37
2024/04/17 08:50:10;;;;;;;;;;;16.50;34.30;18.20;97668.00;;;;5479111;26;2280;-37
2024/04/17 08:52:40;;;;;;;;;;;16.60;34.20;18.20;97674.00;;;;5481372;26;1599;-36
2024/04/17 08:55:08;;;;;;;;;;;16.60;34.00;18.20;97682.00;;;;5474853;26;2333;-37
2024/04/17 08:57:38;;;;;;;;;;;16.60;33.80;18.30;97673.00;;;;5477709;26;2136;-37
2024/04/17 09:00:07;;;;;;;;;;;16.70;33.70;18.30;97673.00;;;;5480267;26;2159;-37
2024/04/17 09:02:37;;;;;;;;;;;16.70;33.60;18.30;97675.00;;;;5477452;26;2199;-37
2024/04/17 09:05:07;;;;;;;;;;;16.70;33.50;18.30;97677.00;;;;5479254;26;2184;-37
2024/04/17 09:07:38;;;;;;;;;;;16.70;33.30;18.40;97679.00;;;;5480624;26;2206;-37
2024/04/17 09:10:06;;;;;;;;;;;16.70;33.60;18.30;97685.00;;;;5478253;26;2410;-36
2024/04/17 09:12:38;;;;;;;;;;;16.70;33.80;18.30;97685.00;;;;5480710;26;2305;-37
2024/04/17 09:15:06;;;;;;;;;;;16.60;34.30;18.40;97684.00;;;;5480204;26;2144;-37
2024/04/17 09:17:36;;;;;;;;;;;16.70;34.00;18.40;97686.00;;;;5480978;26;2252;-36
2024/04/17 09:20:07;;;;;;;;;;;16.70;33.90;18.40;97686.00;;;;5477715;26;2226;-37
2024/04/17 09:22:37;;;;;;;;;;;16.70;33.70;18.40;97686.00;;;;5480461;26;2308;-37
2024/04/17 09:25:11;;;;;;;;;;;16.70;33.50;18.40;97681.00;;;;5479272;26;2193;-37
2024/04/17 09:27:41;;;;;;;;;;;16.70;33.40;18.40;97683.00;;;;5480159;26;2180;-37
2024/04/17 09:30:09;;;;;;;;;;;16.70;33.30;18.40;97675.00;;;;5478124;26;2006;-37
2024/04/17 09:32:39;;;;;;;;;;;16.70;33.20;18.40;97674.00;;;;5480374;26;2054;-36
2024/04/17 09:35:10;;;;;;;;;;;16.70;33.10;18.40;97669.00;;;;5477540;26;2472;-38
2024/04/17 09:37:41;;;;;;;;;;;16.80;33.40;18.40;97674.00;;;;5481077;26;2373;-39
2024/04/17 09:40:10;;;;;;;;;;;16.70;34.20;18.40;97665.00;;;;5478133;26;2125;-38
2024/04/17 09:42:41;;;;;;;;;;;16.70;33.90;18.40;97664.00;;;;5480890;26;2339;-39
2024/04/17 09:45:11;;;;;;;;;;;16.70;34.00;18.40;97676.00;;;;5479365;26;2172;-41
2024/04/17 09:47:41;;;;;;;;;;;16.70;33.70;18.40;97671.00;;;;5480549;26;2262;-38
2024/04/17 09:50:14;;;;;;;;;;;16.70;33.60;18.40;97667.00;;;;5478986;26;2236;-39
2024/04/17 09:52:44;;;;;;;;;;;16.80;33.50;18.50;97669.00;;;;5480126;26;2298;-41
2024/04/17 09:55:11;;;;;;;;;;;16.80;33.40;18.50;97674.00;;;;5477768;26;2375;-38
2024/04/17 09:57:41;;;;;;;;;;;16.80;33.20;18.50;97662.00;;;;5479659;26;1968;-39
2024/04/17 10:00:10;;;;;;;;;;;16.80;33.20;18.50;97662.00;;;;5480003;26;2243;-39
2024/04/17 10:02:40;;;;;;;;;;;16.80;33.10;18.50;97664.00;;;;5483005;26;2221;-39
2024/04/17 10:05:07;;;;;;;;;;;16.80;33.20;18.50;97665.00;;;;5483370;26;2368;-40
2024/04/17 10:07:40;;;;;;;;;;;16.80;33.30;18.50;97661.00;;;;5481819;26;2192;-38
2024/04/17 10:10:08;;;;;;;;;;;16.80;33.60;18.50;97651.00;;;;5478229;26;2247;-39
2024/04/17 10:12:42;;;;;;;;;;;16.80;34.00;18.50;97660.00;;;;5482787;26;2197;-38
2024/04/17 10:15:09;;;;;;;;;;;16.80;33.70;18.50;97650.00;;;;5481911;26;2051;-39
2024/04/17 10:17:39;;;;;;;;;;;16.80;33.50;18.50;97645.00;;;;5482749;26;1994;-38
2024/04/17 10:20:24;;;;;;;;;;;16.80;33.40;18.60;97636.00;;;;5479675;26;1985;-39
2024/04/17 10:23:06;;;;;;;;;;;16.80;33.20;18.60;97650.00;;;;5479969;26;2040;-39
2024/04/17 10:25:33;;;;;;;;;;;16.90;33.20;18.60;97652.00;;;;5482571;26;2289;-39
2024/04/17 10:28:12;;;;;;;;;;;16.90;33.00;18.60;97678.00;;;;5482719;26;2178;-39
2024/04/17 10:30:42;;;;;;;;;;;16.90;33.00;18.60;97683.00;;;;5481649;26;3029;-39
2024/04/17 10:33:21;;;;;;;;;;;16.90;33.00;18.60;97686.00;;;;5480938;26;2249;-39
2024/04/17 10:35:48;;;;;;;;;;;16.90;33.10;18.60;97693.00;;;;5482332;26;2187;-39
2024/04/17 10:38:21;;;;;;;;;;;16.90;33.20;18.60;97701.00;;;;5482221;26;2300;-40
2024/04/17 10:41:00;;;;;;;;;;;16.80;34.20;18.50;97698.00;;;;5480835;26;2161;-38
2024/04/17 10:43:32;;;;;;;;;;;16.80;34.10;18.50;97698.00;;;;5482986;26;1989;-38
2024/04/17 10:46:04;;;;;;;;;;;16.70;34.30;18.40;97704.00;;;;5481519;26;2191;-39
2024/04/17 10:48:43;;;;;;;;;;;16.70;34.70;18.40;97701.00;;;;5483800;26;2231;-40
2024/04/17 10:51:12;;;;;;;;;;;16.70;34.40;18.50;97707.00;;;;5481743;26;2128;-39
2024/04/17 10:53:46;;;;;;;;;;;16.70;34.10;18.50;97708.00;;;;5482309;26;2215;-39
2024/04/17 10:56:14;;;;;;;;;;;16.80;34.60;18.50;97704.00;;;;5482101;26;2312;-39
2024/04/17 10:58:45;;;;;;;;;;;16.80;33.80;18.50;97712.00;;;;5484027;26;2205;-40
2024/04/17 11:01:13;;;;;;;;;;;16.80;33.70;18.50;97708.00;;;;5481231;26;2351;-40
2024/04/17 11:03:43;;;;;;;;;;;16.80;33.50;18.50;97712.00;;;;5483727;26;2295;-42
2024/04/17 11:06:11;;;;;;;;;;;16.80;33.40;18.50;97727.00;;;;5481470;26;1960;-40
2024/04/17 11:08:42;;;;;;;;;;;16.80;33.20;18.50;97725.00;;;;5484677;26;2336;-39
2024/04/17 11:11:27;;;;;;;;;;;16.80;33.50;18.50;97724.00;;;;5473681;26;1966;-39
2024/04/17 11:13:57;;;;;;;;;;;16.80;33.70;18.50;97717.00;;;;5478710;26;2920;-41
2024/04/17 11:16:24;;;;;;;;;;;16.80;34.00;18.50;97719.00;;;;5480991;26;2223;-39
2024/04/17 11:18:55;;;;;;;;;;;16.80;34.00;18.50;97712.00;;;;5478214;26;2354;-39
2024/04/17 11:21:22;;;;;;;;;;;16.80;33.80;18.50;97712.00;;;;5474257;26;2238;-41
2024/04/17 11:23:52;;;;;;;;;;;16.80;33.60;18.50;97712.00;;;;5480070;26;2290;-39
2024/04/17 11:26:20;;;;;;;;;;;16.80;33.60;18.50;97707.00;;;;5480670;26;2514;-40
2024/04/17 11:28:52;;;;;;;;;;;16.80;33.40;18.50;97709.00;;;;5473001;26;2391;-39
2024/04/17 11:31:19;;;;;;;;;;;16.80;33.30;18.50;97708.00;;;;5482283;26;2170;-39
2024/04/17 11:33:49;;;;;;;;;;;16.80;33.20;18.50;97698.00;;;;5477824;26;2263;-40
2024/04/17 11:36:17;;;;;;;;;;;16.80;33.10;18.50;97703.00;;;;5479888;26;1578;-39
2024/04/17 11:38:47;;;;;;;;;;;16.90;33.50;18.50;97699.00;;;;5481372;26;2192;-40
2024/04/17 11:41:15;;;;;;;;;;;16.80;33.40;18.50;97704.00;;;;5469809;26;2209;-40
2024/04/17 11:43:46;;;;;;;;;;;16.70;33.80;18.50;97697.00;;;;5483360;26;2376;-39
2024/04/17 11:46:17;;;;;;;;;;;16.70;34.00;18.50;97698.00;;;;5480786;26;2162;-39
2024/04/17 11:48:48;;;;;;;;;;;16.70;33.70;18.50;97698.00;;;;5481347;26;2323;-38
2024/04/17 11:51:16;;;;;;;;;;;16.70;33.60;18.50;97696.00;;;;5479218;26;2234;-39
2024/04/17 11:53:46;;;;;;;;;;;16.70;33.50;18.50;97703.00;;;;5478529;26;2250;-41
2024/04/17 11:56:13;;;;;;;;;;;16.80;33.40;18.50;97699.00;;;;5480690;26;2196;-39
2024/04/17 11:58:45;;;;;;;;;;;16.80;33.30;18.50;97702.00;;;;5475087;26;2262;-38
2024/04/17 12:01:12;;;;;;;;;;;16.80;33.20;18.50;97698.00;;;;5471589;26;2279;-39
2024/04/17 12:03:45;;;;;;;;;;;16.80;33.10;18.40;97696.00;;;;5477774;26;2282;-39
2024/04/17 12:06:13;;;;;;;;;;;16.80;33.30;18.40;97693.00;;;;5481697;26;2339;-39
2024/04/17 12:08:43;;;;;;;;;;;16.80;33.50;18.40;97695.00;;;;5477566;26;2161;-38
2024/04/17 12:11:10;;;;;;;;;;;16.70;33.80;18.40;97688.00;;;;5474419;26;2352;-39
2024/04/17 12:13:40;;;;;;;;;;;16.70;34.10;18.40;97699.00;;;;5479628;26;2401;-39
2024/04/17 12:16:08;;;;;;;;;;;16.70;33.70;18.40;97681.00;;;;5476432;26;2373;-39
2024/04/17 12:18:38;;;;;;;;;;;16.70;33.60;18.50;97684.00;;;;5479287;26;2168;-39
2024/04/17 12:21:08;;;;;;;;;;;16.80;33.50;18.50;97672.00;;;;5476763;26;2242;-40